Time;durP1;ratioP1;P1;durP2;ratioP2;P2;SDS_P1;SDS_P2;PMS_P1;PMS_P2;Temp;Humidity;BMP_temperature;BMP_pressure;BME280_temperature;BME280_humidity;BME280_pressure;Samples;Min_cycle;Max_cycle;Signal;HPM_P1;HPM_P2
2022/08/20 00:01:03;;;;;;;6.38;4.45;;;19.80;99.90;;;;;;4998288;28;20114;-70
2022/08/20 00:03:32;;;;;;;7.35;5.07;;;19.80;99.90;;;;;;4986262;28;20034;-71
2022/08/20 00:06:11;;;;;;;5.65;4.30;;;19.80;99.90;;;;;;4983536;28;20483;-71
2022/08/20 00:08:37;;;;;;;5.20;4.50;;;19.80;99.90;;;;;;4987448;28;20026;-71
2022/08/20 00:11:05;;;;;;;7.55;4.18;;;19.70;99.90;;;;;;4981215;28;20030;-71
2022/08/20 00:13:56;;;;;;;4.75;3.92;;;19.80;99.90;;;;;;5002542;28;20080;-70
2022/08/20 00:16:24;;;;;;;4.90;3.83;;;19.70;99.90;;;;;;4988492;28;20141;-71
2022/08/20 00:18:50;;;;;;;5.03;3.90;;;19.70;99.90;;;;;;4989569;28;20096;-70
2022/08/20 00:21:18;;;;;;;4.50;3.78;;;19.80;99.90;;;;;;4987557;28;20031;-69
2022/08/20 00:23:47;;;;;;;4.18;3.63;;;19.70;99.90;;;;;;5007543;28;20022;-77
2022/08/20 00:26:13;;;;;;;5.20;3.83;;;19.70;99.90;;;;;;5010658;28;21552;-78
2022/08/20 00:28:39;;;;;;;5.15;3.45;;;19.70;99.90;;;;;;4992695;28;20033;-77
2022/08/20 00:31:08;;;;;;;3.97;3.42;;;19.70;99.90;;;;;;5009430;28;20023;-78
2022/08/20 00:33:34;;;;;;;4.38;3.60;;;19.60;99.90;;;;;;4995117;28;20022;-77
2022/08/20 00:36:05;;;;;;;5.47;3.90;;;19.60;99.90;;;;;;4994941;28;20041;-77
2022/08/20 00:38:32;;;;;;;6.18;3.78;;;19.60;99.90;;;;;;4991957;28;20113;-76
2022/08/20 00:40:58;;;;;;;6.68;3.17;;;19.50;99.90;;;;;;4994858;28;20023;-78
2022/08/20 00:43:27;;;;;;;4.80;4.18;;;19.50;99.90;;;;;;4998260;28;20042;-77
2022/08/20 00:45:56;;;;;;;4.40;3.60;;;19.50;99.90;;;;;;4994358;28;20114;-77
2022/08/20 00:48:31;;;;;;;5.00;3.55;;;19.50;99.90;;;;;;4987854;28;20022;-77
2022/08/20 00:51:28;;;;;;;10.32;3.35;;;19.40;99.90;;;;;;4986792;28;20124;-76
2022/08/20 00:53:58;;;;;;;6.68;3.55;;;19.40;99.90;;;;;;4989607;28;20488;-76
2022/08/20 00:56:24;;;;;;;4.38;3.00;;;19.40;99.90;;;;;;4991113;28;20018;-77
2022/08/20 00:58:52;;;;;;;5.32;3.20;;;19.30;99.90;;;;;;5005985;28;20399;-77
2022/08/20 01:01:21;;;;;;;3.60;3.10;;;19.40;99.90;;;;;;4991378;28;20033;-76
2022/08/20 01:03:47;;;;;;;6.90;3.55;;;19.30;99.90;;;;;;4987650;28;20015;-74
2022/08/20 01:06:13;;;;;;;5.60;3.03;;;19.30;99.90;;;;;;4989402;28;20511;-77
2022/08/20 01:08:39;;;;;;;4.60;3.30;;;19.30;99.90;;;;;;4992761;28;20029;-76
2022/08/20 01:11:08;;;;;;;7.43;3.33;;;19.20;99.90;;;;;;4993455;28;20077;-76
2022/08/20 01:13:37;;;;;;;5.70;3.75;;;19.30;99.90;;;;;;4992101;28;20050;-77
2022/08/20 01:16:07;;;;;;;6.10;3.38;;;19.20;99.90;;;;;;4992937;28;20030;-75
2022/08/20 01:18:33;;;;;;;4.10;3.58;;;19.20;99.90;;;;;;4988932;28;20033;-77
2022/08/20 01:21:01;;;;;;;4.40;3.58;;;19.10;99.90;;;;;;5004665;28;20027;-75
2022/08/20 01:23:28;;;;;;;5.35;3.45;;;19.10;99.90;;;;;;4990777;28;20034;-77
2022/08/20 01:26:16;;;;;;;6.05;3.55;;;19.10;99.90;;;;;;4992021;28;20181;-77
2022/08/20 01:28:49;;;;;;;4.80;3.15;;;19.10;99.90;;;;;;4990539;28;20105;-77
2022/08/20 01:31:24;;;;;;;3.67;3.20;;;19.10;99.90;;;;;;4992425;28;20372;-77
2022/08/20 01:33:53;;;;;;;3.10;2.80;;;19.00;99.90;;;;;;4989417;28;20100;-77
2022/08/20 01:36:24;;;;;;;4.55;3.03;;;19.10;99.90;;;;;;4992981;28;20041;-75
2022/08/20 01:38:50;;;;;;;3.30;2.92;;;19.00;99.90;;;;;;4989858;28;20084;-76
2022/08/20 01:41:16;;;;;;;4.45;2.95;;;19.00;99.90;;;;;;4988011;28;20026;-78
2022/08/20 01:43:45;;;;;;;4.03;3.28;;;19.00;99.90;;;;;;4987560;28;20026;-78
2022/08/20 01:46:12;;;;;;;4.45;2.97;;;19.00;99.90;;;;;;5008713;28;20030;-78
2022/08/20 01:48:39;;;;;;;4.65;3.25;;;19.00;99.90;;;;;;4991480;28;20022;-74
2022/08/20 01:51:19;;;;;;;3.40;2.78;;;19.00;99.90;;;;;;4992766;28;20707;-77
2022/08/20 01:53:51;;;;;;;3.28;2.50;;;18.90;99.90;;;;;;4991572;28;20041;-76
2022/08/20 01:56:21;;;;;;;4.28;3.00;;;18.90;99.90;;;;;;5004393;28;20030;-75
2022/08/20 01:58:51;;;;;;;4.70;3.30;;;18.90;99.90;;;;;;4986838;28;20038;-76
2022/08/20 02:01:22;;;;;;;3.78;3.17;;;18.90;99.90;;;;;;4984762;28;20107;-75
2022/08/20 02:03:48;;;;;;;3.42;3.10;;;18.90;99.90;;;;;;4989088;28;20429;-75
2022/08/20 02:06:14;;;;;;;3.28;2.90;;;18.90;99.90;;;;;;5009130;28;20027;-77
2022/08/20 02:08:40;;;;;;;4.38;3.20;;;18.90;99.90;;;;;;5008981;28;20050;-77
2022/08/20 02:11:07;;;;;;;4.55;3.00;;;18.90;99.90;;;;;;4995917;28;20033;-78
2022/08/20 02:13:33;;;;;;;3.80;2.95;;;18.80;99.90;;;;;;4997810;28;20121;-77
2022/08/20 02:15:58;;;;;;;4.70;3.47;;;18.80;99.90;;;;;;4990454;28;20458;-76
2022/08/20 02:18:24;;;;;;;7.43;3.78;;;18.80;99.90;;;;;;4982877;28;20022;-77
2022/08/20 02:20:51;;;;;;;2.88;2.55;;;18.80;99.90;;;;;;4984734;28;20415;-76
2022/08/20 02:23:17;;;;;;;3.92;2.92;;;18.80;99.90;;;;;;4993665;28;20046;-78
2022/08/20 02:25:46;;;;;;;4.38;3.13;;;18.80;99.90;;;;;;4993568;28;20097;-77
2022/08/20 02:28:14;;;;;;;3.60;3.08;;;18.80;99.90;;;;;;4991172;28;20026;-74
2022/08/20 02:30:45;;;;;;;5.68;3.58;;;18.80;99.90;;;;;;4991031;28;20038;-76
2022/08/20 02:33:16;;;;;;;3.92;3.03;;;18.80;99.90;;;;;;4986443;28;20061;-76
2022/08/20 02:35:44;;;;;;;4.72;3.72;;;18.80;99.90;;;;;;4983997;28;20390;-76
2022/08/20 02:38:10;;;;;;;5.57;3.42;;;18.80;99.90;;;;;;4988361;28;20125;-76
2022/08/20 02:40:37;;;;;;;4.00;3.28;;;18.80;99.90;;;;;;4985903;28;20028;-76
2022/08/20 02:43:03;;;;;;;4.07;3.53;;;18.80;99.90;;;;;;5002413;28;20487;-74
2022/08/20 02:45:35;;;;;;;5.40;3.55;;;18.80;99.90;;;;;;5001493;28;20033;-76
2022/08/20 02:48:02;;;;;;;5.10;3.28;;;18.80;99.90;;;;;;4989645;28;20110;-76
2022/08/20 02:50:29;;;;;;;3.97;3.05;;;18.80;99.90;;;;;;4988465;28;20141;-76
2022/08/20 02:52:55;;;;;;;5.20;3.47;;;18.80;99.90;;;;;;4987016;28;20494;-75
2022/08/20 02:55:22;;;;;;;4.72;3.10;;;18.80;99.90;;;;;;5001648;28;20031;-76
2022/08/20 02:57:47;;;;;;;5.88;2.83;;;18.80;99.90;;;;;;4985597;28;20415;-75
2022/08/20 03:00:17;;;;;;;5.07;3.15;;;18.80;99.90;;;;;;4988216;28;20030;-76
2022/08/20 03:02:44;;;;;;;6.18;3.33;;;18.80;99.90;;;;;;4984229;28;20057;-76
2022/08/20 03:05:10;;;;;;;3.58;2.78;;;18.80;99.90;;;;;;4988614;28;20034;-74
2022/08/20 03:07:44;;;;;;;3.85;3.13;;;18.80;99.90;;;;;;5000934;28;20072;-75
2022/08/20 03:10:14;;;;;;;4.65;3.30;;;18.80;99.90;;;;;;4986610;28;20577;-76
2022/08/20 03:12:40;;;;;;;4.80;3.50;;;18.80;99.90;;;;;;4988677;28;20030;-76
2022/08/20 03:15:09;;;;;;;4.30;3.20;;;18.80;99.90;;;;;;4986068;28;20031;-76
2022/08/20 03:17:35;;;;;;;7.72;3.45;;;18.70;99.90;;;;;;4982311;28;20538;-74
2022/08/20 03:20:03;;;;;;;4.43;3.22;;;18.80;99.90;;;;;;4986468;28;20070;-77
2022/08/20 03:22:29;;;;;;;4.28;2.88;;;18.80;99.90;;;;;;4987296;28;20049;-77
2022/08/20 03:24:55;;;;;;;4.70;3.28;;;18.70;99.90;;;;;;4997921;28;20018;-76
2022/08/20 03:27:21;;;;;;;4.40;3.63;;;18.80;99.90;;;;;;4988201;28;20023;-76
2022/08/20 03:29:47;;;;;;;3.85;3.10;;;18.70;99.90;;;;;;4986325;28;20027;-76
2022/08/20 03:32:13;;;;;;;6.68;3.50;;;18.70;99.90;;;;;;4988718;28;20034;-77
2022/08/20 03:34:38;;;;;;;4.68;3.28;;;18.70;99.90;;;;;;5001007;28;20031;-76
2022/08/20 03:37:04;;;;;;;5.55;3.03;;;18.70;99.90;;;;;;4988488;28;20029;-76
2022/08/20 03:39:30;;;;;;;4.15;3.35;;;18.70;99.90;;;;;;4984721;28;20037;-76
2022/08/20 03:41:55;;;;;;;4.38;3.55;;;18.60;99.90;;;;;;4986454;28;20094;-77
2022/08/20 03:44:21;;;;;;;3.53;3.15;;;18.60;99.90;;;;;;4988924;28;20026;-75
2022/08/20 03:46:47;;;;;;;4.05;3.45;;;18.60;99.90;;;;;;4987073;28;20044;-77
2022/08/20 03:49:13;;;;;;;4.45;3.78;;;18.60;99.90;;;;;;4986933;28;20018;-78
2022/08/20 03:51:39;;;;;;;5.22;4.03;;;18.60;99.90;;;;;;4989664;28;20028;-77
2022/08/20 03:54:05;;;;;;;6.70;3.80;;;18.60;99.90;;;;;;4998635;28;20034;-76
2022/08/20 03:56:30;;;;;;;4.88;3.80;;;18.60;99.90;;;;;;4987899;28;20049;-76
2022/08/20 03:58:56;;;;;;;6.43;3.60;;;18.60;99.90;;;;;;4985809;28;20027;-76
2022/08/20 04:01:22;;;;;;;4.30;3.55;;;18.60;99.90;;;;;;4987434;28;20031;-75
2022/08/20 04:03:48;;;;;;;4.43;3.75;;;18.60;99.90;;;;;;4987659;28;20022;-75
2022/08/20 04:06:13;;;;;;;5.97;3.88;;;18.60;99.90;;;;;;4986919;28;20080;-76
2022/08/20 04:08:40;;;;;;;5.35;3.85;;;18.60;99.90;;;;;;4986042;28;20073;-75
2022/08/20 04:11:06;;;;;;;6.43;3.70;;;18.60;99.90;;;;;;4985677;28;20031;-77
2022/08/20 04:13:32;;;;;;;5.13;3.90;;;18.60;99.90;;;;;;4986614;28;20038;-77
2022/08/20 04:16:02;;;;;;;5.72;4.00;;;18.60;99.90;;;;;;4987781;28;20084;-75
2022/08/20 04:18:28;;;;;;;6.45;4.18;;;18.60;99.90;;;;;;4988158;28;20356;-75
2022/08/20 04:20:54;;;;;;;5.35;3.70;;;18.60;99.90;;;;;;4984924;28;20029;-75
2022/08/20 04:23:21;;;;;;;4.82;3.95;;;18.60;99.90;;;;;;4989360;28;20483;-76
2022/08/20 04:25:46;;;;;;;5.50;4.47;;;18.60;99.90;;;;;;4990331;28;20610;-76
2022/08/20 04:28:15;;;;;;;8.20;4.32;;;18.60;99.90;;;;;;4987591;28;20101;-76
2022/08/20 04:30:41;;;;;;;6.20;3.70;;;18.60;99.90;;;;;;4989077;28;20026;-77
2022/08/20 04:33:09;;;;;;;7.20;3.92;;;18.60;99.90;;;;;;4989724;28;20550;-77
2022/08/20 04:35:34;;;;;;;5.38;3.85;;;18.60;99.90;;;;;;4988787;28;20033;-77
2022/08/20 04:38:05;;;;;;;5.75;3.83;;;18.60;99.90;;;;;;4992582;28;20120;-77
2022/08/20 04:43:16;;;;;;;5.97;3.88;;;18.60;99.90;;;;;;4987013;28;20036;-76
2022/08/20 04:45:42;;;;;;;5.60;4.32;;;18.60;99.90;;;;;;4979866;28;20072;-76
2022/08/20 04:48:08;;;;;;;12.23;3.75;;;18.60;99.90;;;;;;4989727;28;20022;-76
2022/08/20 04:50:36;;;;;;;8.07;4.65;;;18.60;99.90;;;;;;4987621;28;20041;-77
2022/08/20 04:53:05;;;;;;;7.65;4.78;;;18.60;99.90;;;;;;4985895;28;20479;-75
2022/08/20 04:55:31;;;;;;;9.85;4.35;;;18.60;99.90;;;;;;4971339;28;20606;-75
2022/08/20 04:58:06;;;;;;;8.95;4.38;;;18.70;99.90;;;;;;4983277;28;20022;-75
2022/08/20 05:00:32;;;;;;;5.28;3.58;;;18.60;99.90;;;;;;4987111;28;20026;-75
2022/08/20 05:02:57;;;;;;;5.25;3.90;;;18.60;99.90;;;;;;4992232;28;20073;-76
2022/08/20 05:05:23;;;;;;;5.18;3.78;;;18.60;99.90;;;;;;4992183;28;20034;-75
2022/08/20 05:07:49;;;;;;;7.45;4.72;;;18.70;99.90;;;;;;4989085;28;20386;-75
2022/08/20 05:10:17;;;;;;;4.95;4.00;;;18.70;99.90;;;;;;4990454;28;20038;-75
2022/08/20 05:12:44;;;;;;;6.03;4.15;;;18.70;99.90;;;;;;4989019;28;20035;-75
2022/08/20 05:15:11;;;;;;;7.43;4.53;;;18.70;99.90;;;;;;5002506;28;20514;-76
2022/08/20 05:17:41;;;;;;;5.93;4.95;;;18.80;99.90;;;;;;4985602;28;20026;-75
2022/08/20 05:20:10;;;;;;;5.63;4.15;;;18.80;99.90;;;;;;4992007;28;20030;-75
2022/08/20 05:22:35;;;;;;;5.53;4.45;;;18.80;99.90;;;;;;4992034;28;20391;-75
2022/08/20 05:25:02;;;;;;;5.70;3.95;;;18.80;99.90;;;;;;4992171;28;20140;-76
2022/08/20 05:27:28;;;;;;;5.60;4.35;;;18.80;99.90;;;;;;4986050;28;20015;-67
2022/08/20 05:30:05;;;;;;;5.93;4.18;;;18.80;99.90;;;;;;4984326;28;20932;-68
2022/08/20 05:32:32;;;;;;;9.77;4.60;;;18.90;99.90;;;;;;5017333;23;20161;-82
2022/08/20 05:34:59;;;;;;;5.63;4.75;;;18.90;99.90;;;;;;4962317;28;20122;-79
2022/08/20 05:37:25;;;;;;;9.20;5.30;;;18.90;99.90;;;;;;4947072;28;20019;-78
2022/08/20 05:39:51;;;;;;;6.68;5.50;;;18.90;99.90;;;;;;4942895;28;20028;-78
2022/08/20 05:42:16;;;;;;;9.30;4.50;;;18.90;99.90;;;;;;4946057;28;20038;-79
2022/08/20 05:44:45;;;;;;;5.30;4.70;;;18.90;99.90;;;;;;4949543;28;20038;-79
2022/08/20 05:47:10;;;;;;;6.57;4.43;;;18.90;99.90;;;;;;4949768;28;20420;-79
2022/08/20 05:49:37;;;;;;;7.28;5.30;;;19.00;99.90;;;;;;4947283;28;20031;-79
2022/08/20 05:52:04;;;;;;;5.93;4.60;;;19.00;99.90;;;;;;4945518;28;20027;-79
2022/08/20 05:54:30;;;;;;;7.60;4.80;;;19.00;99.90;;;;;;4949161;28;20034;-78
2022/08/20 05:56:56;;;;;;;6.43;5.45;;;19.00;99.90;;;;;;4991401;23;20177;-66
2022/08/20 05:59:23;;;;;;;6.72;5.35;;;19.00;99.90;;;;;;4987025;28;20511;-66
2022/08/20 06:01:48;;;;;;;7.38;5.05;;;19.00;99.90;;;;;;5008101;28;20071;-75
2022/08/20 06:04:23;;;;;;;6.20;4.63;;;19.00;99.90;;;;;;4991942;28;20022;-74
2022/08/20 06:06:51;;;;;;;6.50;5.40;;;19.00;99.90;;;;;;4974530;28;20031;-75
2022/08/20 06:09:19;;;;;;;7.45;5.35;;;19.00;99.90;;;;;;4973565;28;20476;-74
2022/08/20 06:11:45;;;;;;;7.20;5.47;;;19.10;99.90;;;;;;4976940;28;20027;-75
2022/08/20 06:14:11;;;;;;;12.30;5.68;;;19.10;99.90;;;;;;4978486;28;20502;-75
2022/08/20 06:16:37;;;;;;;7.32;5.32;;;19.10;99.90;;;;;;4974183;28;20034;-76
2022/08/20 06:19:03;;;;;;;6.88;5.22;;;19.20;99.90;;;;;;4973002;28;20399;-73
2022/08/20 06:21:29;;;;;;;7.25;5.30;;;19.20;99.90;;;;;;4989031;28;20372;-74
2022/08/20 06:23:54;;;;;;;8.73;5.45;;;19.30;99.90;;;;;;4972629;28;20026;-75
2022/08/20 06:26:20;;;;;;;8.02;5.00;;;19.40;99.90;;;;;;4972106;28;20081;-74
2022/08/20 06:28:46;;;;;;;9.13;5.10;;;19.40;99.90;;;;;;4972996;28;20026;-74
2022/08/20 06:31:11;;;;;;;6.28;4.75;;;19.40;99.90;;;;;;4973023;28;20026;-74
2022/08/20 06:33:37;;;;;;;6.47;4.30;;;19.50;99.90;;;;;;4987381;28;20031;-73
2022/08/20 06:36:03;;;;;;;8.15;4.85;;;19.50;99.90;;;;;;4971126;28;20050;-73
2022/08/20 06:38:31;;;;;;;12.88;5.43;;;19.50;99.90;;;;;;4970432;28;20053;-74
2022/08/20 06:40:57;;;;;;;6.70;4.60;;;19.50;99.90;;;;;;4964433;28;20562;-74
2022/08/20 06:43:22;;;;;;;5.70;4.75;;;19.60;99.90;;;;;;4963190;28;20118;-74
2022/08/20 06:45:48;;;;;;;5.60;4.32;;;19.50;99.90;;;;;;4977772;28;20022;-75
2022/08/20 06:48:14;;;;;;;9.32;4.78;;;19.60;99.90;;;;;;4970070;28;20125;-74
2022/08/20 06:50:44;;;;;;;8.50;4.97;;;19.60;99.90;;;;;;4969177;28;20031;-74
2022/08/20 06:53:13;;;;;;;7.30;4.43;;;19.60;99.90;;;;;;4973273;28;20034;-73
2022/08/20 06:55:41;;;;;;;5.35;4.43;;;19.70;99.90;;;;;;4971065;28;20049;-73
2022/08/20 06:58:10;;;;;;;6.13;4.82;;;19.70;99.90;;;;;;4973755;28;20026;-73
2022/08/20 07:00:41;;;;;;;6.35;4.30;;;19.80;99.90;;;;;;4971295;28;20034;-73
2022/08/20 07:03:07;;;;;;;7.50;5.20;;;19.80;99.90;;;;;;4973731;28;20115;-73
2022/08/20 07:05:36;;;;;;;7.10;4.68;;;19.90;99.90;;;;;;4973596;28;20098;-72
2022/08/20 07:08:02;;;;;;;5.63;4.35;;;19.90;99.90;;;;;;4974300;28;20046;-73
2022/08/20 07:10:29;;;;;;;7.00;4.72;;;20.00;99.90;;;;;;4974467;28;20030;-73
2022/08/20 07:12:55;;;;;;;7.35;3.90;;;20.00;99.90;;;;;;4975837;28;20022;-73
2022/08/20 07:15:24;;;;;;;7.15;4.07;;;20.10;99.90;;;;;;4970569;28;20077;-73
2022/08/20 07:17:59;;;;;;;5.60;4.20;;;20.00;99.90;;;;;;4986699;28;20062;-73
2022/08/20 07:20:25;;;;;;;6.97;4.15;;;20.10;99.90;;;;;;4971472;28;20027;-73
2022/08/20 07:22:51;;;;;;;6.45;4.22;;;20.10;99.90;;;;;;4987348;28;20077;-73
2022/08/20 07:25:19;;;;;;;6.70;4.15;;;20.20;99.90;;;;;;4972330;28;20471;-74
2022/08/20 07:27:46;;;;;;;4.85;3.70;;;20.20;99.90;;;;;;4977038;28;20033;-73
2022/08/20 07:33:00;;;;;;;5.75;4.22;;;20.30;99.90;;;;;;4971574;28;20521;-73
2022/08/20 07:35:26;;;;;;;13.20;4.88;;;20.30;99.90;;;;;;4988261;28;20062;-75
2022/08/20 07:37:55;;;;;;;5.78;3.92;;;20.40;99.90;;;;;;4968768;28;20109;-74
2022/08/20 07:40:26;;;;;;;6.20;4.13;;;20.40;99.90;;;;;;4970652;28;20049;-74
2022/08/20 07:42:57;;;;;;;5.88;4.10;;;20.50;99.90;;;;;;4977688;28;20054;-74
2022/08/20 07:45:24;;;;;;;6.55;4.20;;;20.50;99.90;;;;;;4971460;28;20480;-74
2022/08/20 07:47:52;;;;;;;4.72;4.03;;;20.60;99.90;;;;;;4969008;28;20398;-73
2022/08/20 07:50:20;;;;;;;6.22;3.90;;;20.60;99.90;;;;;;4969590;28;20022;-74
2022/08/20 07:52:46;;;;;;;6.07;4.20;;;20.60;99.90;;;;;;4989369;28;20031;-74
2022/08/20 07:55:15;;;;;;;6.18;3.90;;;20.70;99.90;;;;;;4971744;28;20129;-74
2022/08/20 07:57:42;;;;;;;5.32;3.72;;;20.70;99.90;;;;;;4985244;28;20110;-74
2022/08/20 08:00:09;;;;;;;7.45;4.20;;;20.80;99.90;;;;;;4975202;28;20027;-74
2022/08/20 08:02:35;;;;;;;5.40;3.83;;;20.90;99.90;;;;;;4974226;28;20057;-73
2022/08/20 08:05:02;;;;;;;5.07;3.65;;;20.90;99.90;;;;;;4976602;28;20050;-73
2022/08/20 08:07:28;;;;;;;8.13;3.92;;;20.90;99.90;;;;;;4968857;28;20105;-74
2022/08/20 08:09:55;;;;;;;6.03;3.83;;;21.00;99.90;;;;;;4985687;28;20118;-73
2022/08/20 08:12:22;;;;;;;7.50;4.18;;;21.10;99.90;;;;;;4966995;28;20163;-73
2022/08/20 08:14:49;;;;;;;5.53;4.07;;;21.10;99.90;;;;;;4971358;28;20039;-73
2022/08/20 08:17:16;;;;;;;6.00;3.63;;;21.20;99.90;;;;;;4973588;28;20026;-74
2022/08/20 08:19:47;;;;;;;8.77;3.60;;;21.30;99.90;;;;;;4968138;28;20027;-74
2022/08/20 08:22:16;;;;;;;5.45;3.67;;;21.40;99.90;;;;;;4971494;28;20456;-74
2022/08/20 08:24:45;;;;;;;5.15;3.70;;;21.50;99.90;;;;;;4990242;28;20030;-74
2022/08/20 08:27:12;;;;;;;5.35;3.33;;;21.60;99.90;;;;;;4982224;28;20050;-74
2022/08/20 08:29:39;;;;;;;4.43;3.38;;;21.70;99.90;;;;;;4983608;28;20149;-74
2022/08/20 08:32:06;;;;;;;5.60;2.40;;;21.70;99.90;;;;;;4990696;28;20034;-74
2022/08/20 08:34:34;;;;;;;6.10;3.28;;;21.70;99.90;;;;;;4987188;28;20085;-73
2022/08/20 08:37:01;;;;;;;4.25;3.63;;;21.60;99.90;;;;;;4972800;28;20143;-74
2022/08/20 08:39:29;;;;;;;3.83;3.17;;;21.60;99.90;;;;;;4972909;28;20034;-74
2022/08/20 08:41:56;;;;;;;5.13;3.83;;;21.60;99.90;;;;;;4973679;28;20051;-73
2022/08/20 08:44:32;;;;;;;5.32;3.47;;;21.60;99.90;;;;;;4974621;28;20027;-74
2022/08/20 08:47:02;;;;;;;6.70;3.55;;;21.60;99.90;;;;;;4974666;28;20472;-74
2022/08/20 08:49:34;;;;;;;4.88;3.30;;;21.60;99.90;;;;;;4970452;28;20042;-74
2022/08/20 08:52:10;;;;;;;4.38;3.50;;;21.70;99.90;;;;;;4977220;28;20225;-74
2022/08/20 08:54:50;;;;;;;5.22;3.33;;;21.70;99.90;;;;;;4973030;28;20026;-74
2022/08/20 08:57:16;;;;;;;5.20;3.50;;;21.70;99.90;;;;;;4971092;28;20035;-74
2022/08/20 08:59:44;;;;;;;5.47;3.67;;;21.80;99.90;;;;;;4972946;28;20457;-74
2022/08/20 09:02:19;;;;;;;4.43;3.78;;;21.90;99.90;;;;;;4973443;28;20046;-74
2022/08/20 09:04:45;;;;;;;4.72;4.18;;;21.90;99.90;;;;;;4975534;28;20019;-74
2022/08/20 09:07:15;;;;;;;7.45;3.80;;;22.00;99.90;;;;;;4990937;28;20033;-74
2022/08/20 09:09:43;;;;;;;5.57;3.92;;;22.10;99.90;;;;;;4973244;28;20031;-74
2022/08/20 09:12:17;;;;;;;5.13;3.88;;;22.10;99.90;;;;;;4972303;28;20089;-74
2022/08/20 09:14:45;;;;;;;4.47;4.03;;;22.20;99.90;;;;;;4969762;28;20084;-73
2022/08/20 09:17:10;;;;;;;6.40;4.10;;;22.20;99.90;;;;;;4972551;28;20062;-74
2022/08/20 09:19:36;;;;;;;5.88;3.90;;;22.30;99.90;;;;;;4974314;28;20042;-73
2022/08/20 09:22:18;;;;;;;5.30;4.00;;;22.30;99.90;;;;;;4972919;28;20463;-74
2022/08/20 09:24:44;;;;;;;6.22;4.25;;;22.40;99.90;;;;;;4973073;28;20502;-73
2022/08/20 09:27:10;;;;;;;5.05;3.30;;;22.50;99.90;;;;;;4970393;28;20019;-74
2022/08/20 09:29:36;;;;;;;5.55;3.72;;;22.50;99.90;;;;;;4972407;28;20603;-74
2022/08/20 09:32:10;;;;;;;6.38;4.00;;;22.60;99.90;;;;;;4975615;28;20027;-74
2022/08/20 09:34:42;;;;;;;5.95;3.83;;;22.70;99.90;;;;;;4972811;28;20023;-74
2022/08/20 09:37:08;;;;;;;5.88;3.90;;;22.80;99.90;;;;;;4969818;28;20031;-75
2022/08/20 09:39:34;;;;;;;5.68;3.63;;;22.80;99.90;;;;;;4966845;28;20038;-75
2022/08/20 09:42:11;;;;;;;5.38;3.92;;;22.70;99.90;;;;;;4971761;28;20068;-75
2022/08/20 09:44:37;;;;;;;4.65;3.50;;;22.70;99.90;;;;;;4969384;28;20076;-74
2022/08/20 09:47:03;;;;;;;5.18;3.40;;;22.70;99.90;;;;;;4971095;28;20035;-74
2022/08/20 09:49:29;;;;;;;5.38;3.17;;;22.60;99.90;;;;;;4986906;28;20042;-75
2022/08/20 09:51:55;;;;;;;4.13;2.83;;;22.60;99.90;;;;;;4971920;28;20630;-75
2022/08/20 09:54:21;;;;;;;4.18;3.50;;;22.50;99.90;;;;;;4984300;28;20130;-75
2022/08/20 09:56:47;;;;;;;4.57;3.10;;;22.60;99.90;;;;;;4989248;28;20038;-73
2022/08/20 09:59:14;;;;;;;7.60;3.35;;;22.50;99.90;;;;;;4976573;28;20022;-75
2022/08/20 10:01:40;;;;;;;3.60;2.90;;;22.50;99.90;;;;;;4984922;28;20059;-76
2022/08/20 10:04:06;;;;;;;3.50;3.03;;;22.60;99.90;;;;;;4970855;28;20034;-75
2022/08/20 10:06:39;;;;;;;3.95;3.20;;;22.60;99.90;;;;;;4972992;28;20059;-76
2022/08/20 10:09:05;;;;;;;6.10;3.45;;;22.70;99.90;;;;;;4986100;28;20042;-74
2022/08/20 10:11:31;;;;;;;4.30;3.33;;;22.80;99.90;;;;;;4973440;28;20061;-74
2022/08/20 10:13:57;;;;;;;5.50;3.40;;;22.90;99.90;;;;;;4974227;28;20177;-75
2022/08/20 10:16:22;;;;;;;4.60;3.17;;;23.00;99.90;;;;;;4973095;28;20118;-75
2022/08/20 10:18:48;;;;;;;4.43;3.65;;;23.20;99.90;;;;;;4971298;28;20027;-74
2022/08/20 10:21:14;;;;;;;3.53;2.78;;;23.40;99.90;;;;;;4986654;28;20019;-77
2022/08/20 10:23:40;;;;;;;3.55;2.80;;;23.50;99.90;;;;;;4991837;28;20035;-75
2022/08/20 10:26:10;;;;;;;5.40;2.88;;;23.50;99.90;;;;;;4974204;28;20027;-75
2022/08/20 10:28:36;;;;;;;3.45;2.10;;;23.60;99.90;;;;;;4975115;28;20023;-74
2022/08/20 10:31:05;;;;;;;4.95;2.80;;;23.40;99.90;;;;;;4971169;28;20511;-74
2022/08/20 10:33:31;;;;;;;4.35;3.05;;;23.30;99.90;;;;;;4975819;28;20031;-74
2022/08/20 10:35:56;;;;;;;3.10;2.10;;;23.10;99.90;;;;;;4989700;28;20113;-74
2022/08/20 10:38:22;;;;;;;6.05;2.10;;;23.00;99.90;;;;;;4973510;28;20054;-74
2022/08/20 10:40:48;;;;;;;2.95;2.17;;;22.80;99.90;;;;;;4973432;28;20539;-75
2022/08/20 10:43:13;;;;;;;4.20;2.30;;;22.60;99.90;;;;;;4970751;28;20480;-75
2022/08/20 10:45:39;;;;;;;4.18;2.55;;;22.50;99.90;;;;;;4977495;28;20047;-74
2022/08/20 10:48:06;;;;;;;4.78;2.20;;;22.40;99.90;;;;;;4973695;28;20022;-75
2022/08/20 10:50:32;;;;;;;3.03;2.15;;;22.20;99.90;;;;;;4972209;28;20027;-74
2022/08/20 10:52:58;;;;;;;6.00;1.65;;;22.20;99.90;;;;;;4970216;28;20033;-75
2022/08/20 10:55:23;;;;;;;3.88;1.58;;;22.10;99.90;;;;;;4986092;28;20447;-74
2022/08/20 10:57:49;;;;;;;4.93;2.40;;;21.90;99.90;;;;;;4977079;28;20038;-75
2022/08/20 11:00:16;;;;;;;2.00;1.80;;;21.90;99.90;;;;;;4972355;28;20105;-75
2022/08/20 11:02:42;;;;;;;3.83;1.63;;;21.80;99.90;;;;;;4987102;28;20022;-75
2022/08/20 11:05:08;;;;;;;4.88;2.00;;;21.80;99.90;;;;;;4973252;28;20081;-75
2022/08/20 11:07:37;;;;;;;4.25;1.90;;;21.80;99.90;;;;;;4969977;28;20505;-75
2022/08/20 11:10:08;;;;;;;2.97;1.55;;;21.80;99.90;;;;;;4986659;28;20157;-74
2022/08/20 11:12:33;;;;;;;3.55;2.10;;;21.70;99.90;;;;;;4974404;28;20058;-75
2022/08/20 11:14:59;;;;;;;3.45;2.13;;;21.80;99.90;;;;;;4976867;28;20062;-75
2022/08/20 11:17:28;;;;;;;2.30;1.48;;;21.80;99.90;;;;;;4972761;28;20507;-75
2022/08/20 11:19:55;;;;;;;3.33;1.88;;;21.80;99.90;;;;;;4991333;28;20031;-74
2022/08/20 11:22:21;;;;;;;7.75;2.83;;;21.80;99.90;;;;;;4990041;28;20026;-74
2022/08/20 11:24:47;;;;;;;2.60;1.60;;;21.70;99.90;;;;;;4989328;28;20062;-75
2022/08/20 11:27:21;;;;;;;3.47;2.13;;;21.80;99.90;;;;;;4972595;28;20050;-74
2022/08/20 11:29:47;;;;;;;3.33;1.55;;;21.70;99.90;;;;;;4970726;28;20361;-74
2022/08/20 11:32:13;;;;;;;8.90;2.33;;;21.70;99.90;;;;;;4967040;28;20030;-73
2022/08/20 11:34:38;;;;;;;6.40;2.38;;;21.50;99.90;;;;;;4984012;28;20778;-73
2022/08/20 11:37:04;;;;;;;8.18;3.03;;;21.50;99.90;;;;;;4968727;28;20419;-74
2022/08/20 11:39:30;;;;;;;8.13;3.70;;;21.40;99.90;;;;;;4990409;28;20030;-74
2022/08/20 11:41:55;;;;;;;9.50;5.60;;;21.40;99.90;;;;;;4971055;28;20118;-73
2022/08/20 11:44:21;;;;;;;25.10;12.73;;;21.40;99.90;;;;;;4986923;28;20062;-74
2022/08/20 11:46:47;;;;;;;9.57;5.10;;;21.30;99.90;;;;;;4976305;28;20375;-74
2022/08/20 11:49:13;;;;;;;12.05;5.43;;;21.30;99.90;;;;;;4971870;28;20110;-74
2022/08/20 11:51:39;;;;;;;6.72;4.35;;;21.30;99.90;;;;;;4969680;28;20169;-74
2022/08/20 11:54:05;;;;;;;13.10;6.97;;;21.20;99.90;;;;;;4968854;28;20042;-74
2022/08/20 11:56:31;;;;;;;14.43;7.07;;;21.30;99.90;;;;;;4978344;28;20085;-74
2022/08/20 11:58:57;;;;;;;13.82;7.90;;;21.30;99.90;;;;;;4971513;28;20042;-74
2022/08/20 12:01:23;;;;;;;16.52;8.43;;;21.30;99.90;;;;;;4969048;28;20031;-74
2022/08/20 12:03:48;;;;;;;5.30;2.60;;;21.30;99.90;;;;;;4977012;28;20018;-74
2022/08/20 12:06:14;;;;;;;17.88;5.43;;;21.30;99.90;;;;;;4977316;28;20023;-73
2022/08/20 12:08:40;;;;;;;21.02;9.15;;;21.30;99.90;;;;;;4969634;28;20492;-74
2022/08/20 12:11:06;;;;;;;5.40;3.22;;;21.30;99.90;;;;;;4992066;23;20046;-76
2022/08/20 12:13:33;;;;;;;11.60;6.35;;;21.30;99.90;;;;;;4998923;28;20412;-75
2022/08/20 12:15:59;;;;;;;5.80;3.22;;;21.40;99.90;;;;;;4989362;28;20029;-76
2022/08/20 12:18:25;;;;;;;11.45;5.35;;;21.40;99.90;;;;;;5003205;28;20096;-76
2022/08/20 12:20:50;;;;;;;5.75;3.85;;;21.30;99.90;;;;;;4990030;28;20035;-76
2022/08/20 12:23:16;;;;;;;21.67;11.65;;;21.30;99.90;;;;;;4985410;28;20050;-76
2022/08/20 12:25:42;;;;;;;12.57;6.72;;;21.40;99.90;;;;;;4998674;28;20455;-76
2022/08/20 12:28:10;;;;;;;8.95;4.00;;;21.40;99.90;;;;;;4982184;28;20082;-76
2022/08/20 12:30:36;;;;;;;3.08;1.88;;;21.50;99.90;;;;;;4998470;28;20399;-76
2022/08/20 12:33:02;;;;;;;8.73;4.75;;;21.50;99.90;;;;;;4975339;28;20022;-76
2022/08/20 12:35:28;;;;;;;4.93;2.60;;;21.50;99.90;;;;;;4974834;28;20173;-76
2022/08/20 12:37:54;;;;;;;2.08;1.30;;;21.60;99.90;;;;;;4978734;28;20022;-76
2022/08/20 12:40:26;;;;;;;3.80;1.48;;;21.60;99.90;;;;;;4978998;28;20046;-76
2022/08/20 12:42:51;;;;;;;1.50;1.40;;;21.60;99.90;;;;;;4980253;28;20019;-76
2022/08/20 12:45:17;;;;;;;1.52;1.02;;;21.60;99.90;;;;;;4979183;28;20703;-76
2022/08/20 12:47:46;;;;;;;2.17;1.52;;;21.60;99.90;;;;;;4975835;28;20073;-76
2022/08/20 12:50:16;;;;;;;1.85;1.17;;;21.60;99.90;;;;;;4987826;28;20134;-76
2022/08/20 12:52:43;;;;;;;1.80;1.10;;;21.80;99.90;;;;;;4984546;28;20033;-76